Terminal Aerodrome Forecast
Issued by NWS

Home | Current Version | Previous Version | Text Only | Print | Product List | Glossary On
Versions: 1 2 3 4 5 6 7 8 9 10 11 12 13 14 15 16 17 18
000
FTAK31 PAFA 281212 AAA
TAFATA
TAF AMD
PATA 281212Z 2812/0112 02008KT 3SM -SN BKN025
     FM281600 33003KT 4SM BR BKN035
     FM282000 32003KT P6SM SKC=

USA.gov is the U.S. government's official web portal to all federal, state and local government web resources and services.